Portada
METAR-TAF:

METAR-TAF

Aeropuertos :

Murcia, España

Aeropuerto de Murcia-San Javier

latitud: 37-47N, longitud: 000-48W, altitud: 5 m

Observación

El informe se hizo hace 21 minutos, a las 11:00 UTC
Viento 6 kt del suroeste, variando entre sur y oeste
Temperatura 21°C
Humedad 33%
Presión 1020 hPa
Visibilidad 10 km o más
sin nubes por debajo de 1500 m y sin presencia de cumulonimbus.

METAR: LELC 231100Z 23006KT 190V260 CAVOK 21/04 Q1020 NOSIG

Hora: 12:21 (11:21 UTC)

Pronóstico

El informe se hizo hace 6 horas y 21 minutos, a las 05:00 UTC
Pronóstico válido del 23 a las 06 UTC al 24 a las 06 UTC
Viento 6 kt del suroeste
Visibilidad 10 km o más
sin nubes por debajo de 1500 m y sin presencia de cumulonimbus.

TAF: LELC 230500Z 2306/2406 23006KT CAVOK TX22/2314Z TN07/2306Z

Observaciones y pronósticos meteorológicos de más de 4000 aeropuertos (mensajes METAR y TAF).

Los puntos amarillos y rojos representan las estaciones disponibles.

Ponga el ratón en el punto deseado para ver el nombre de la estación.

Haga clic para ver las observaciones y los pronósticos meteorológicos.

Para cambiar el mapa : haga clic en los botones verdes con una cruz de color negro para hacer un zoom, en el botón verde con un guión para alejar o en las flechas verdes para mapas adyacentes.


METAR-TAF: